sensor_id;sensor_type;location;lat;lon;timestamp;P1;durP1;ratioP1;P2;durP2;ratioP2
10007;SDS011;5043;41.766;26.204;2024-01-25T00:01:39;27.03;;;16.47;;
10007;SDS011;5043;41.766;26.204;2024-01-25T00:04:05;26.13;;;15.37;;
10007;SDS011;5043;41.766;26.204;2024-01-25T00:06:30;26.57;;;15.87;;
10007;SDS011;5043;41.766;26.204;2024-01-25T00:08:56;37.37;;;22.50;;
10007;SDS011;5043;41.766;26.204;2024-01-25T00:11:22;31.27;;;20.23;;
10007;SDS011;5043;41.766;26.204;2024-01-25T00:13:47;30.50;;;18.80;;
10007;SDS011;5043;41.766;26.204;2024-01-25T00:16:13;35.57;;;24.33;;
10007;SDS011;5043;41.766;26.204;2024-01-25T00:18:39;37.17;;;24.93;;
10007;SDS011;5043;41.766;26.204;2024-01-25T00:21:05;43.53;;;26.80;;
10007;SDS011;5043;41.766;26.204;2024-01-25T00:23:30;38.03;;;25.13;;
10007;SDS011;5043;41.766;26.204;2024-01-25T00:25:56;40.60;;;24.20;;
10007;SDS011;5043;41.766;26.204;2024-01-25T00:28:24;40.57;;;23.63;;
10007;SDS011;5043;41.766;26.204;2024-01-25T00:30:50;37.80;;;25.17;;
10007;SDS011;5043;41.766;26.204;2024-01-25T00:33:16;38.27;;;24.50;;
10007;SDS011;5043;41.766;26.204;2024-01-25T00:35:41;39.03;;;23.53;;
10007;SDS011;5043;41.766;26.204;2024-01-25T00:38:07;35.33;;;23.87;;
10007;SDS011;5043;41.766;26.204;2024-01-25T00:40:33;37.07;;;23.17;;
10007;SDS011;5043;41.766;26.204;2024-01-25T00:42:59;43.87;;;27.47;;
10007;SDS011;5043;41.766;26.204;2024-01-25T00:45:26;35.87;;;24.33;;
10007;SDS011;5043;41.766;26.204;2024-01-25T00:47:52;36.13;;;26.63;;
10007;SDS011;5043;41.766;26.204;2024-01-25T00:50:18;42.23;;;28.43;;
10007;SDS011;5043;41.766;26.204;2024-01-25T00:52:49;40.63;;;27.17;;
10007;SDS011;5043;41.766;26.204;2024-01-25T00:55:16;38.33;;;26.77;;
10007;SDS011;5043;41.766;26.204;2024-01-25T00:57:42;38.10;;;27.13;;
10007;SDS011;5043;41.766;26.204;2024-01-25T01:00:08;35.37;;;26.23;;
10007;SDS011;5043;41.766;26.204;2024-01-25T01:02:35;36.27;;;25.43;;
10007;SDS011;5043;41.766;26.204;2024-01-25T01:05:04;45.63;;;29.60;;
10007;SDS011;5043;41.766;26.204;2024-01-25T01:07:30;54.40;;;33.37;;
10007;SDS011;5043;41.766;26.204;2024-01-25T01:09:56;44.07;;;26.73;;
10007;SDS011;5043;41.766;26.204;2024-01-25T01:12:22;37.40;;;24.40;;
10007;SDS011;5043;41.766;26.204;2024-01-25T01:14:48;40.97;;;26.23;;
10007;SDS011;5043;41.766;26.204;2024-01-25T01:17:13;37.10;;;23.50;;
10007;SDS011;5043;41.766;26.204;2024-01-25T01:19:40;32.00;;;18.53;;
10007;SDS011;5043;41.766;26.204;2024-01-25T01:22:05;27.83;;;17.57;;
10007;SDS011;5043;41.766;26.204;2024-01-25T01:24:31;26.03;;;16.97;;
10007;SDS011;5043;41.766;26.204;2024-01-25T01:26:57;23.93;;;15.97;;
10007;SDS011;5043;41.766;26.204;2024-01-25T01:29:23;22.10;;;14.20;;
10007;SDS011;5043;41.766;26.204;2024-01-25T01:31:49;20.27;;;13.40;;
10007;SDS011;5043;41.766;26.204;2024-01-25T01:34:14;33.30;;;19.40;;
10007;SDS011;5043;41.766;26.204;2024-01-25T01:36:42;25.97;;;14.93;;
10007;SDS011;5043;41.766;26.204;2024-01-25T01:39:09;20.10;;;12.27;;
10007;SDS011;5043;41.766;26.204;2024-01-25T01:41:35;20.87;;;12.77;;
10007;SDS011;5043;41.766;26.204;2024-01-25T01:44:00;19.40;;;12.90;;
10007;SDS011;5043;41.766;26.204;2024-01-25T01:46:30;19.00;;;11.73;;
10007;SDS011;5043;41.766;26.204;2024-01-25T01:49:06;21.67;;;14.23;;
10007;SDS011;5043;41.766;26.204;2024-01-25T01:51:34;23.70;;;15.63;;
10007;SDS011;5043;41.766;26.204;2024-01-25T01:54:03;27.83;;;17.77;;
10007;SDS011;5043;41.766;26.204;2024-01-25T01:56:32;31.33;;;19.20;;
10007;SDS011;5043;41.766;26.204;2024-01-25T01:58:58;29.43;;;18.10;;
10007;SDS011;5043;41.766;26.204;2024-01-25T02:01:25;27.33;;;15.90;;
10007;SDS011;5043;41.766;26.204;2024-01-25T02:03:51;26.90;;;16.63;;
10007;SDS011;5043;41.766;26.204;2024-01-25T02:06:16;24.93;;;15.27;;
10007;SDS011;5043;41.766;26.204;2024-01-25T02:08:43;23.27;;;14.43;;
10007;SDS011;5043;41.766;26.204;2024-01-25T02:11:11;21.07;;;12.97;;
10007;SDS011;5043;41.766;26.204;2024-01-25T02:13:37;21.07;;;13.43;;
10007;SDS011;5043;41.766;26.204;2024-01-25T02:16:03;17.83;;;12.57;;
10007;SDS011;5043;41.766;26.204;2024-01-25T02:18:29;17.20;;;12.07;;
10007;SDS011;5043;41.766;26.204;2024-01-25T02:20:55;21.23;;;13.90;;
10007;SDS011;5043;41.766;26.204;2024-01-25T02:23:20;22.67;;;15.47;;
10007;SDS011;5043;41.766;26.204;2024-01-25T02:25:46;20.27;;;13.37;;
10007;SDS011;5043;41.766;26.204;2024-01-25T02:28:11;17.93;;;12.77;;
10007;SDS011;5043;41.766;26.204;2024-01-25T02:30:37;18.27;;;13.03;;
10007;SDS011;5043;41.766;26.204;2024-01-25T02:33:03;24.40;;;17.23;;
10007;SDS011;5043;41.766;26.204;2024-01-25T02:35:28;24.53;;;15.57;;
10007;SDS011;5043;41.766;26.204;2024-01-25T02:37:54;20.57;;;12.97;;
10007;SDS011;5043;41.766;26.204;2024-01-25T02:40:19;21.50;;;13.30;;
10007;SDS011;5043;41.766;26.204;2024-01-25T02:42:45;18.10;;;12.93;;
10007;SDS011;5043;41.766;26.204;2024-01-25T02:45:10;22.53;;;14.73;;
10007;SDS011;5043;41.766;26.204;2024-01-25T02:47:36;21.67;;;14.43;;
10007;SDS011;5043;41.766;26.204;2024-01-25T02:50:02;26.60;;;17.17;;
10007;SDS011;5043;41.766;26.204;2024-01-25T02:52:28;27.67;;;17.63;;
10007;SDS011;5043;41.766;26.204;2024-01-25T02:54:53;24.37;;;14.87;;
10007;SDS011;5043;41.766;26.204;2024-01-25T02:57:19;21.73;;;14.37;;
10007;SDS011;5043;41.766;26.204;2024-01-25T02:59:44;22.60;;;14.23;;
10007;SDS011;5043;41.766;26.204;2024-01-25T03:02:11;21.40;;;15.00;;
10007;SDS011;5043;41.766;26.204;2024-01-25T03:04:37;23.73;;;15.03;;
10007;SDS011;5043;41.766;26.204;2024-01-25T03:07:03;24.63;;;15.63;;
10007;SDS011;5043;41.766;26.204;2024-01-25T03:09:28;22.63;;;14.37;;
10007;SDS011;5043;41.766;26.204;2024-01-25T03:11:54;24.77;;;16.97;;
10007;SDS011;5043;41.766;26.204;2024-01-25T03:14:20;25.07;;;16.83;;
10007;SDS011;5043;41.766;26.204;2024-01-25T03:16:45;30.63;;;17.47;;
10007;SDS011;5043;41.766;26.204;2024-01-25T03:19:11;23.27;;;15.43;;
10007;SDS011;5043;41.766;26.204;2024-01-25T03:21:37;26.63;;;16.47;;
10007;SDS011;5043;41.766;26.204;2024-01-25T03:24:03;28.17;;;16.83;;
10007;SDS011;5043;41.766;26.204;2024-01-25T03:26:29;27.60;;;17.03;;
10007;SDS011;5043;41.766;26.204;2024-01-25T03:28:55;26.33;;;16.97;;
10007;SDS011;5043;41.766;26.204;2024-01-25T03:31:20;27.97;;;16.10;;
10007;SDS011;5043;41.766;26.204;2024-01-25T03:33:46;26.93;;;15.97;;
10007;SDS011;5043;41.766;26.204;2024-01-25T03:36:15;23.93;;;16.97;;
10007;SDS011;5043;41.766;26.204;2024-01-25T03:38:41;27.00;;;16.67;;
10007;SDS011;5043;41.766;26.204;2024-01-25T03:41:07;28.83;;;17.00;;
10007;SDS011;5043;41.766;26.204;2024-01-25T03:43:33;26.40;;;18.07;;
10007;SDS011;5043;41.766;26.204;2024-01-25T03:45:59;29.97;;;18.43;;
10007;SDS011;5043;41.766;26.204;2024-01-25T03:48:24;28.83;;;17.27;;
10007;SDS011;5043;41.766;26.204;2024-01-25T03:50:50;26.43;;;17.80;;
10007;SDS011;5043;41.766;26.204;2024-01-25T03:53:16;27.53;;;18.00;;
10007;SDS011;5043;41.766;26.204;2024-01-25T03:55:41;26.43;;;17.83;;
10007;SDS011;5043;41.766;26.204;2024-01-25T03:58:07;28.07;;;17.03;;
10007;SDS011;5043;41.766;26.204;2024-01-25T04:00:33;25.30;;;15.30;;
10007;SDS011;5043;41.766;26.204;2024-01-25T04:03:00;23.73;;;15.43;;
10007;SDS011;5043;41.766;26.204;2024-01-25T04:05:25;21.73;;;14.47;;
10007;SDS011;5043;41.766;26.204;2024-01-25T04:07:51;24.10;;;15.97;;
10007;SDS011;5043;41.766;26.204;2024-01-25T04:10:17;22.33;;;14.27;;
10007;SDS011;5043;41.766;26.204;2024-01-25T04:12:43;22.37;;;15.10;;
10007;SDS011;5043;41.766;26.204;2024-01-25T04:15:09;22.33;;;14.63;;
10007;SDS011;5043;41.766;26.204;2024-01-25T04:17:34;26.73;;;17.80;;
10007;SDS011;5043;41.766;26.204;2024-01-25T04:20:00;29.50;;;17.57;;
10007;SDS011;5043;41.766;26.204;2024-01-25T04:22:26;38.93;;;21.67;;
10007;SDS011;5043;41.766;26.204;2024-01-25T04:24:52;33.57;;;21.07;;
10007;SDS011;5043;41.766;26.204;2024-01-25T04:27:17;27.10;;;19.63;;
10007;SDS011;5043;41.766;26.204;2024-01-25T04:29:43;33.27;;;17.63;;
10007;SDS011;5043;41.766;26.204;2024-01-25T04:32:09;29.97;;;16.23;;
10007;SDS011;5043;41.766;26.204;2024-01-25T04:34:35;25.53;;;16.60;;
10007;SDS011;5043;41.766;26.204;2024-01-25T04:37:01;30.93;;;20.20;;
10007;SDS011;5043;41.766;26.204;2024-01-25T04:39:28;32.03;;;20.77;;
10007;SDS011;5043;41.766;26.204;2024-01-25T04:41:54;25.70;;;18.87;;
10007;SDS011;5043;41.766;26.204;2024-01-25T04:44:20;29.03;;;19.37;;
10007;SDS011;5043;41.766;26.204;2024-01-25T04:46:46;28.40;;;18.53;;
10007;SDS011;5043;41.766;26.204;2024-01-25T04:49:11;30.83;;;19.33;;
10007;SDS011;5043;41.766;26.204;2024-01-25T04:51:37;30.13;;;20.10;;
10007;SDS011;5043;41.766;26.204;2024-01-25T04:54:03;27.93;;;19.47;;
10007;SDS011;5043;41.766;26.204;2024-01-25T04:56:29;31.10;;;20.53;;
10007;SDS011;5043;41.766;26.204;2024-01-25T04:58:54;37.87;;;21.03;;
10007;SDS011;5043;41.766;26.204;2024-01-25T05:01:20;45.67;;;27.30;;
10007;SDS011;5043;41.766;26.204;2024-01-25T05:03:46;47.07;;;28.23;;
10007;SDS011;5043;41.766;26.204;2024-01-25T05:06:11;57.10;;;29.77;;
10007;SDS011;5043;41.766;26.204;2024-01-25T05:08:38;40.73;;;24.77;;
10007;SDS011;5043;41.766;26.204;2024-01-25T05:11:03;52.80;;;28.20;;
10007;SDS011;5043;41.766;26.204;2024-01-25T05:13:29;60.73;;;32.90;;
10007;SDS011;5043;41.766;26.204;2024-01-25T05:15:55;54.97;;;31.00;;
10007;SDS011;5043;41.766;26.204;2024-01-25T05:18:21;53.73;;;29.37;;
10007;SDS011;5043;41.766;26.204;2024-01-25T05:20:46;47.50;;;27.57;;
10007;SDS011;5043;41.766;26.204;2024-01-25T05:23:12;60.50;;;38.93;;
10007;SDS011;5043;41.766;26.204;2024-01-25T05:25:38;62.87;;;42.37;;
10007;SDS011;5043;41.766;26.204;2024-01-25T05:28:04;63.43;;;39.30;;
10007;SDS011;5043;41.766;26.204;2024-01-25T05:30:30;58.70;;;35.17;;
10007;SDS011;5043;41.766;26.204;2024-01-25T05:32:55;51.87;;;33.70;;
10007;SDS011;5043;41.766;26.204;2024-01-25T05:35:21;57.33;;;35.63;;
10007;SDS011;5043;41.766;26.204;2024-01-25T05:37:49;56.33;;;37.17;;
10007;SDS011;5043;41.766;26.204;2024-01-25T05:40:15;58.03;;;36.37;;
10007;SDS011;5043;41.766;26.204;2024-01-25T05:42:40;67.03;;;40.77;;
10007;SDS011;5043;41.766;26.204;2024-01-25T05:45:06;69.93;;;42.27;;
10007;SDS011;5043;41.766;26.204;2024-01-25T05:47:34;68.27;;;41.50;;
10007;SDS011;5043;41.766;26.204;2024-01-25T05:49:59;71.73;;;43.23;;
10007;SDS011;5043;41.766;26.204;2024-01-25T05:52:25;78.07;;;44.67;;
10007;SDS011;5043;41.766;26.204;2024-01-25T05:54:51;77.00;;;47.20;;
10007;SDS011;5043;41.766;26.204;2024-01-25T05:57:17;75.83;;;48.57;;
10007;SDS011;5043;41.766;26.204;2024-01-25T05:59:44;78.50;;;48.87;;
10007;SDS011;5043;41.766;26.204;2024-01-25T06:02:10;83.80;;;50.77;;
10007;SDS011;5043;41.766;26.204;2024-01-25T06:04:35;90.50;;;54.07;;
10007;SDS011;5043;41.766;26.204;2024-01-25T06:07:01;87.93;;;52.87;;
10007;SDS011;5043;41.766;26.204;2024-01-25T06:09:27;75.47;;;47.80;;
10007;SDS011;5043;41.766;26.204;2024-01-25T06:11:53;77.23;;;49.87;;
10007;SDS011;5043;41.766;26.204;2024-01-25T06:14:19;70.53;;;43.70;;
10007;SDS011;5043;41.766;26.204;2024-01-25T06:16:45;74.87;;;45.33;;
10007;SDS011;5043;41.766;26.204;2024-01-25T06:19:11;68.23;;;42.07;;
10007;SDS011;5043;41.766;26.204;2024-01-25T06:21:37;76.07;;;47.43;;
10007;SDS011;5043;41.766;26.204;2024-01-25T06:24:05;67.13;;;42.97;;
10007;SDS011;5043;41.766;26.204;2024-01-25T06:26:31;93.17;;;55.53;;
10007;SDS011;5043;41.766;26.204;2024-01-25T06:28:57;85.47;;;50.53;;
10007;SDS011;5043;41.766;26.204;2024-01-25T06:31:24;87.37;;;51.33;;
10007;SDS011;5043;41.766;26.204;2024-01-25T06:33:50;55.90;;;33.77;;
10007;SDS011;5043;41.766;26.204;2024-01-25T06:36:17;48.97;;;28.67;;
10007;SDS011;5043;41.766;26.204;2024-01-25T06:38:43;33.53;;;21.20;;
10007;SDS011;5043;41.766;26.204;2024-01-25T06:41:09;31.30;;;20.63;;
10007;SDS011;5043;41.766;26.204;2024-01-25T06:43:35;30.63;;;19.23;;
10007;SDS011;5043;41.766;26.204;2024-01-25T06:46:00;35.17;;;21.73;;
10007;SDS011;5043;41.766;26.204;2024-01-25T06:48:26;40.33;;;24.63;;
10007;SDS011;5043;41.766;26.204;2024-01-25T06:50:51;46.13;;;27.17;;
10007;SDS011;5043;41.766;26.204;2024-01-25T06:53:18;54.60;;;30.43;;
10007;SDS011;5043;41.766;26.204;2024-01-25T06:55:44;71.57;;;43.87;;
10007;SDS011;5043;41.766;26.204;2024-01-25T06:58:09;83.40;;;48.87;;
10007;SDS011;5043;41.766;26.204;2024-01-25T07:00:35;78.37;;;48.13;;
10007;SDS011;5043;41.766;26.204;2024-01-25T07:03:00;63.03;;;37.50;;
10007;SDS011;5043;41.766;26.204;2024-01-25T07:05:26;59.63;;;36.73;;
10007;SDS011;5043;41.766;26.204;2024-01-25T07:07:51;52.40;;;33.23;;
10007;SDS011;5043;41.766;26.204;2024-01-25T07:10:17;47.90;;;32.03;;
10007;SDS011;5043;41.766;26.204;2024-01-25T07:12:43;48.33;;;28.30;;
10007;SDS011;5043;41.766;26.204;2024-01-25T07:15:08;44.03;;;28.03;;
10007;SDS011;5043;41.766;26.204;2024-01-25T07:17:34;48.93;;;31.17;;
10007;SDS011;5043;41.766;26.204;2024-01-25T07:19:59;49.37;;;31.53;;
10007;SDS011;5043;41.766;26.204;2024-01-25T07:22:25;46.03;;;29.90;;
10007;SDS011;5043;41.766;26.204;2024-01-25T07:24:50;47.70;;;31.10;;
10007;SDS011;5043;41.766;26.204;2024-01-25T07:27:16;39.33;;;25.33;;
10007;SDS011;5043;41.766;26.204;2024-01-25T07:29:43;37.37;;;23.83;;
10007;SDS011;5043;41.766;26.204;2024-01-25T07:32:09;38.37;;;22.23;;
10007;SDS011;5043;41.766;26.204;2024-01-25T07:34:35;31.10;;;20.00;;
10007;SDS011;5043;41.766;26.204;2024-01-25T07:37:01;32.00;;;21.33;;
10007;SDS011;5043;41.766;26.204;2024-01-25T07:39:28;35.37;;;21.67;;
10007;SDS011;5043;41.766;26.204;2024-01-25T07:41:53;32.03;;;21.67;;
10007;SDS011;5043;41.766;26.204;2024-01-25T07:44:19;40.35;;;23.60;;
10007;SDS011;5043;41.766;26.204;2024-01-25T07:46:44;38.10;;;22.47;;
10007;SDS011;5043;41.766;26.204;2024-01-25T07:49:10;40.33;;;24.90;;
10007;SDS011;5043;41.766;26.204;2024-01-25T07:51:35;33.17;;;22.20;;
10007;SDS011;5043;41.766;26.204;2024-01-25T07:54:01;38.87;;;22.37;;
10007;SDS011;5043;41.766;26.204;2024-01-25T07:56:27;32.27;;;22.37;;
10007;SDS011;5043;41.766;26.204;2024-01-25T07:58:52;32.20;;;22.50;;
10007;SDS011;5043;41.766;26.204;2024-01-25T08:01:18;34.53;;;23.90;;
10007;SDS011;5043;41.766;26.204;2024-01-25T08:03:46;39.07;;;25.77;;
10007;SDS011;5043;41.766;26.204;2024-01-25T08:06:12;42.93;;;28.37;;
10007;SDS011;5043;41.766;26.204;2024-01-25T08:08:38;46.43;;;28.87;;
10007;SDS011;5043;41.766;26.204;2024-01-25T08:11:03;51.78;;;31.00;;
10007;SDS011;5043;41.766;26.204;2024-01-25T08:13:29;47.37;;;28.97;;
10007;SDS011;5043;41.766;26.204;2024-01-25T08:15:55;148.77;;;79.03;;
10007;SDS011;5043;41.766;26.204;2024-01-25T08:18:21;48.40;;;30.50;;
10007;SDS011;5043;41.766;26.204;2024-01-25T08:20:48;54.10;;;33.37;;
10007;SDS011;5043;41.766;26.204;2024-01-25T08:23:14;38.17;;;25.77;;
10007;SDS011;5043;41.766;26.204;2024-01-25T08:25:40;36.17;;;23.52;;
10007;SDS011;5043;41.766;26.204;2024-01-25T08:28:06;32.63;;;21.33;;
10007;SDS011;5043;41.766;26.204;2024-01-25T08:30:31;38.57;;;23.07;;
10007;SDS011;5043;41.766;26.204;2024-01-25T08:32:57;38.80;;;25.17;;
10007;SDS011;5043;41.766;26.204;2024-01-25T08:35:24;44.47;;;28.77;;
10007;SDS011;5043;41.766;26.204;2024-01-25T08:37:50;44.60;;;28.17;;
10007;SDS011;5043;41.766;26.204;2024-01-25T08:40:16;43.17;;;29.08;;
10007;SDS011;5043;41.766;26.204;2024-01-25T08:42:41;45.85;;;28.08;;
10007;SDS011;5043;41.766;26.204;2024-01-25T08:45:07;34.73;;;24.57;;
10007;SDS011;5043;41.766;26.204;2024-01-25T08:47:35;39.25;;;23.23;;
10007;SDS011;5043;41.766;26.204;2024-01-25T08:50:02;40.15;;;22.73;;
10007;SDS011;5043;41.766;26.204;2024-01-25T08:52:28;31.27;;;21.00;;
10007;SDS011;5043;41.766;26.204;2024-01-25T08:54:54;27.60;;;20.13;;
10007;SDS011;5043;41.766;26.204;2024-01-25T08:57:20;35.83;;;19.60;;
10007;SDS011;5043;41.766;26.204;2024-01-25T08:59:45;32.63;;;22.77;;
10007;SDS011;5043;41.766;26.204;2024-01-25T09:02:11;33.17;;;21.17;;
10007;SDS011;5043;41.766;26.204;2024-01-25T09:04:37;30.70;;;20.05;;
10007;SDS011;5043;41.766;26.204;2024-01-25T09:07:02;34.92;;;20.48;;
10007;SDS011;5043;41.766;26.204;2024-01-25T09:09:28;40.50;;;27.30;;
10007;SDS011;5043;41.766;26.204;2024-01-25T09:11:54;32.88;;;21.67;;
10007;SDS011;5043;41.766;26.204;2024-01-25T09:14:20;36.10;;;22.23;;
10007;SDS011;5043;41.766;26.204;2024-01-25T09:16:46;25.92;;;16.92;;
10007;SDS011;5043;41.766;26.204;2024-01-25T09:19:12;26.40;;;18.15;;
10007;SDS011;5043;41.766;26.204;2024-01-25T09:21:38;21.52;;;15.15;;
10007;SDS011;5043;41.766;26.204;2024-01-25T09:24:04;27.50;;;17.27;;
10007;SDS011;5043;41.766;26.204;2024-01-25T09:26:30;15.55;;;13.43;;
10007;SDS011;5043;41.766;26.204;2024-01-25T09:28:56;17.70;;;13.10;;
10007;SDS011;5043;41.766;26.204;2024-01-25T09:31:21;20.73;;;13.77;;
10007;SDS011;5043;41.766;26.204;2024-01-25T09:33:47;19.15;;;14.02;;
10007;SDS011;5043;41.766;26.204;2024-01-25T09:36:12;17.65;;;14.45;;
10007;SDS011;5043;41.766;26.204;2024-01-25T09:38:37;19.00;;;14.10;;
10007;SDS011;5043;41.766;26.204;2024-01-25T09:41:03;23.80;;;16.95;;
10007;SDS011;5043;41.766;26.204;2024-01-25T09:43:29;21.00;;;16.27;;
10007;SDS011;5043;41.766;26.204;2024-01-25T09:45:55;23.95;;;17.00;;
10007;SDS011;5043;41.766;26.204;2024-01-25T09:48:20;18.38;;;15.25;;
10007;SDS011;5043;41.766;26.204;2024-01-25T09:50:47;20.08;;;15.02;;
10007;SDS011;5043;41.766;26.204;2024-01-25T09:53:22;20.50;;;16.38;;
10007;SDS011;5043;41.766;26.204;2024-01-25T09:55:53;19.15;;;15.30;;
10007;SDS011;5043;41.766;26.204;2024-01-25T09:58:25;21.08;;;15.45;;
10007;SDS011;5043;41.766;26.204;2024-01-25T10:01:01;20.30;;;14.40;;
10007;SDS011;5043;41.766;26.204;2024-01-25T10:03:27;19.70;;;16.08;;
10007;SDS011;5043;41.766;26.204;2024-01-25T10:05:53;16.20;;;13.55;;
10007;SDS011;5043;41.766;26.204;2024-01-25T10:08:18;21.10;;;14.80;;
10007;SDS011;5043;41.766;26.204;2024-01-25T10:10:48;21.98;;;15.77;;
10007;SDS011;5043;41.766;26.204;2024-01-25T10:13:14;23.70;;;17.85;;
10007;SDS011;5043;41.766;26.204;2024-01-25T10:15:39;13.77;;;8.93;;
10007;SDS011;5043;41.766;26.204;2024-01-25T10:18:07;12.98;;;7.80;;
10007;SDS011;5043;41.766;26.204;2024-01-25T10:20:38;6.68;;;5.97;;
10007;SDS011;5043;41.766;26.204;2024-01-25T10:23:05;9.38;;;5.68;;
10007;SDS011;5043;41.766;26.204;2024-01-25T10:25:35;11.02;;;7.60;;
10007;SDS011;5043;41.766;26.204;2024-01-25T10:28:02;8.65;;;6.60;;
10007;SDS011;5043;41.766;26.204;2024-01-25T10:30:31;20.17;;;15.60;;
10007;SDS011;5043;41.766;26.204;2024-01-25T10:32:58;14.10;;;8.35;;
10007;SDS011;5043;41.766;26.204;2024-01-25T10:35:24;7.53;;;6.03;;
10007;SDS011;5043;41.766;26.204;2024-01-25T10:37:51;6.53;;;4.97;;
10007;SDS011;5043;41.766;26.204;2024-01-25T10:40:20;5.32;;;4.28;;
10007;SDS011;5043;41.766;26.204;2024-01-25T10:42:46;12.73;;;10.23;;
10007;SDS011;5043;41.766;26.204;2024-01-25T10:45:13;8.70;;;7.70;;
10007;SDS011;5043;41.766;26.204;2024-01-25T10:47:39;9.40;;;8.50;;
10007;SDS011;5043;41.766;26.204;2024-01-25T10:50:06;8.05;;;6.45;;
10007;SDS011;5043;41.766;26.204;2024-01-25T10:52:35;11.50;;;5.60;;
10007;SDS011;5043;41.766;26.204;2024-01-25T10:55:04;5.93;;;4.82;;
10007;SDS011;5043;41.766;26.204;2024-01-25T10:57:42;10.57;;;9.57;;
10007;SDS011;5043;41.766;26.204;2024-01-25T11:00:10;11.25;;;4.97;;
10007;SDS011;5043;41.766;26.204;2024-01-25T11:02:37;5.60;;;4.85;;
10007;SDS011;5043;41.766;26.204;2024-01-25T11:05:15;8.68;;;4.57;;
10007;SDS011;5043;41.766;26.204;2024-01-25T11:07:42;5.85;;;4.97;;
10007;SDS011;5043;41.766;26.204;2024-01-25T11:10:22;8.23;;;6.70;;
10007;SDS011;5043;41.766;26.204;2024-01-25T11:17:57;9.43;;;7.63;;
10007;SDS011;5043;41.766;26.204;2024-01-25T11:20:24;16.42;;;13.77;;
10007;SDS011;5043;41.766;26.204;2024-01-25T11:23:03;45.60;;;32.47;;
10007;SDS011;5043;41.766;26.204;2024-01-25T11:25:33;39.45;;;34.35;;
10007;SDS011;5043;41.766;26.204;2024-01-25T11:28:00;21.42;;;12.27;;
10007;SDS011;5043;41.766;26.204;2024-01-25T11:30:27;9.00;;;7.65;;
10007;SDS011;5043;41.766;26.204;2024-01-25T11:32:55;8.25;;;6.72;;
10007;SDS011;5043;41.766;26.204;2024-01-25T11:35:21;8.52;;;5.93;;
10007;SDS011;5043;41.766;26.204;2024-01-25T11:37:47;8.48;;;7.60;;
10007;SDS011;5043;41.766;26.204;2024-01-25T11:40:14;5.68;;;4.28;;
10007;SDS011;5043;41.766;26.204;2024-01-25T11:42:42;14.25;;;10.80;;
10007;SDS011;5043;41.766;26.204;2024-01-25T11:45:11;9.07;;;5.78;;
10007;SDS011;5043;41.766;26.204;2024-01-25T11:47:38;13.93;;;6.55;;
10007;SDS011;5043;41.766;26.204;2024-01-25T11:50:04;11.52;;;3.53;;
10007;SDS011;5043;41.766;26.204;2024-01-25T11:52:32;9.20;;;6.47;;
10007;SDS011;5043;41.766;26.204;2024-01-25T11:54:59;5.05;;;4.10;;
10007;SDS011;5043;41.766;26.204;2024-01-25T11:57:26;9.57;;;3.20;;
10007;SDS011;5043;41.766;26.204;2024-01-25T11:59:53;9.20;;;3.20;;
10007;SDS011;5043;41.766;26.204;2024-01-25T12:02:20;5.80;;;3.47;;
10007;SDS011;5043;41.766;26.204;2024-01-25T12:04:46;6.88;;;3.30;;
10007;SDS011;5043;41.766;26.204;2024-01-25T12:07:12;4.50;;;2.67;;
10007;SDS011;5043;41.766;26.204;2024-01-25T12:09:38;13.77;;;10.02;;
10007;SDS011;5043;41.766;26.204;2024-01-25T12:12:04;8.15;;;5.18;;
10007;SDS011;5043;41.766;26.204;2024-01-25T12:14:30;7.60;;;4.40;;
10007;SDS011;5043;41.766;26.204;2024-01-25T12:16:56;4.47;;;2.83;;
10007;SDS011;5043;41.766;26.204;2024-01-25T12:19:21;5.38;;;3.03;;
10007;SDS011;5043;41.766;26.204;2024-01-25T12:21:47;6.32;;;3.72;;
10007;SDS011;5043;41.766;26.204;2024-01-25T12:24:13;4.45;;;2.35;;
10007;SDS011;5043;41.766;26.204;2024-01-25T12:26:39;11.18;;;3.00;;
10007;SDS011;5043;41.766;26.204;2024-01-25T12:29:07;4.38;;;2.38;;
10007;SDS011;5043;41.766;26.204;2024-01-25T12:31:36;3.95;;;2.83;;
10007;SDS011;5043;41.766;26.204;2024-01-25T12:34:10;6.63;;;4.40;;
10007;SDS011;5043;41.766;26.204;2024-01-25T12:36:40;9.07;;;4.57;;
10007;SDS011;5043;41.766;26.204;2024-01-25T12:39:05;6.38;;;3.80;;
10007;SDS011;5043;41.766;26.204;2024-01-25T12:41:32;11.15;;;4.57;;
10007;SDS011;5043;41.766;26.204;2024-01-25T12:43:57;9.32;;;4.78;;
10007;SDS011;5043;41.766;26.204;2024-01-25T12:46:23;8.80;;;4.30;;
10007;SDS011;5043;41.766;26.204;2024-01-25T12:48:49;7.22;;;3.22;;
10007;SDS011;5043;41.766;26.204;2024-01-25T12:51:20;7.03;;;4.50;;
10007;SDS011;5043;41.766;26.204;2024-01-25T12:53:46;6.40;;;3.15;;
10007;SDS011;5043;41.766;26.204;2024-01-25T12:56:15;4.68;;;2.47;;
10007;SDS011;5043;41.766;26.204;2024-01-25T12:58:41;4.93;;;2.92;;
10007;SDS011;5043;41.766;26.204;2024-01-25T13:01:07;8.77;;;5.63;;
10007;SDS011;5043;41.766;26.204;2024-01-25T13:03:34;11.10;;;3.60;;
10007;SDS011;5043;41.766;26.204;2024-01-25T13:06:00;5.45;;;2.95;;
10007;SDS011;5043;41.766;26.204;2024-01-25T13:08:28;10.60;;;4.13;;
10007;SDS011;5043;41.766;26.204;2024-01-25T13:10:54;6.57;;;3.70;;
10007;SDS011;5043;41.766;26.204;2024-01-25T13:13:20;6.30;;;3.55;;
10007;SDS011;5043;41.766;26.204;2024-01-25T13:15:46;5.75;;;3.22;;
10007;SDS011;5043;41.766;26.204;2024-01-25T13:18:12;5.47;;;3.00;;
10007;SDS011;5043;41.766;26.204;2024-01-25T13:20:38;5.90;;;3.40;;
10007;SDS011;5043;41.766;26.204;2024-01-25T13:23:04;6.35;;;2.38;;
10007;SDS011;5043;41.766;26.204;2024-01-25T13:25:29;7.38;;;3.10;;
10007;SDS011;5043;41.766;26.204;2024-01-25T13:27:55;21.45;;;11.73;;
10007;SDS011;5043;41.766;26.204;2024-01-25T13:30:21;8.35;;;4.57;;
10007;SDS011;5043;41.766;26.204;2024-01-25T13:32:47;8.25;;;4.63;;
10007;SDS011;5043;41.766;26.204;2024-01-25T13:35:13;9.30;;;5.13;;
10007;SDS011;5043;41.766;26.204;2024-01-25T13:37:38;7.82;;;4.28;;
10007;SDS011;5043;41.766;26.204;2024-01-25T13:40:04;6.93;;;4.05;;
10007;SDS011;5043;41.766;26.204;2024-01-25T13:42:31;12.10;;;5.47;;
10007;SDS011;5043;41.766;26.204;2024-01-25T13:44:56;9.85;;;5.05;;
10007;SDS011;5043;41.766;26.204;2024-01-25T13:47:22;8.52;;;4.43;;
10007;SDS011;5043;41.766;26.204;2024-01-25T13:49:49;5.65;;;3.63;;
10007;SDS011;5043;41.766;26.204;2024-01-25T13:52:18;9.55;;;5.50;;
10007;SDS011;5043;41.766;26.204;2024-01-25T13:54:45;28.55;;;15.95;;
10007;SDS011;5043;41.766;26.204;2024-01-25T13:57:11;6.47;;;4.07;;
10007;SDS011;5043;41.766;26.204;2024-01-25T13:59:38;14.10;;;7.35;;
10007;SDS011;5043;41.766;26.204;2024-01-25T14:02:05;12.85;;;5.65;;
10007;SDS011;5043;41.766;26.204;2024-01-25T14:04:30;12.88;;;7.65;;
10007;SDS011;5043;41.766;26.204;2024-01-25T14:06:56;10.30;;;5.47;;
10007;SDS011;5043;41.766;26.204;2024-01-25T14:09:22;16.55;;;7.00;;
10007;SDS011;5043;41.766;26.204;2024-01-25T14:11:47;11.23;;;7.00;;
10007;SDS011;5043;41.766;26.204;2024-01-25T14:14:13;13.90;;;7.72;;
10007;SDS011;5043;41.766;26.204;2024-01-25T14:16:39;19.88;;;8.75;;
10007;SDS011;5043;41.766;26.204;2024-01-25T14:19:04;19.63;;;9.60;;
10007;SDS011;5043;41.766;26.204;2024-01-25T14:21:33;22.83;;;12.75;;
10007;SDS011;5043;41.766;26.204;2024-01-25T14:23:59;19.10;;;12.18;;
10007;SDS011;5043;41.766;26.204;2024-01-25T14:26:25;20.10;;;11.40;;